sensor_id;sensor_type;location;lat;lon;timestamp;temperature;humidity
9965;DHT22;5023;53.554;9.964;2022-08-19T00:00:34;20.90;99.90
9965;DHT22;5023;53.554;9.964;2022-08-19T00:05:38;21.00;99.90
9965;DHT22;5023;53.554;9.964;2022-08-19T00:10:41;21.00;99.90
9965;DHT22;5023;53.554;9.964;2022-08-19T00:15:45;20.80;99.90
9965;DHT22;5023;53.554;9.964;2022-08-19T00:20:49;20.90;99.90
9965;DHT22;5023;53.554;9.964;2022-08-19T00:25:52;20.90;99.90
9965;DHT22;5023;53.554;9.964;2022-08-19T00:30:54;20.90;99.90
9965;DHT22;5023;53.554;9.964;2022-08-19T00:35:58;20.90;99.90
9965;DHT22;5023;53.554;9.964;2022-08-19T00:41:00;20.90;99.90
9965;DHT22;5023;53.554;9.964;2022-08-19T00:46:03;20.80;99.90
9965;DHT22;5023;53.554;9.964;2022-08-19T00:51:06;20.80;99.90
9965;DHT22;5023;53.554;9.964;2022-08-19T00:56:09;20.90;99.90
9965;DHT22;5023;53.554;9.964;2022-08-19T01:01:12;20.80;99.90
9965;DHT22;5023;53.554;9.964;2022-08-19T01:06:16;20.70;99.90
9965;DHT22;5023;53.554;9.964;2022-08-19T01:11:18;20.70;99.90
9965;DHT22;5023;53.554;9.964;2022-08-19T01:16:22;20.50;99.90
9965;DHT22;5023;53.554;9.964;2022-08-19T01:21:31;20.50;99.90
9965;DHT22;5023;53.554;9.964;2022-08-19T01:26:39;20.50;99.90
9965;DHT22;5023;53.554;9.964;2022-08-19T01:31:42;20.50;99.90
9965;DHT22;5023;53.554;9.964;2022-08-19T01:36:46;20.70;99.90
9965;DHT22;5023;53.554;9.964;2022-08-19T01:41:51;20.70;99.90
9965;DHT22;5023;53.554;9.964;2022-08-19T01:46:55;20.60;99.90
9965;DHT22;5023;53.554;9.964;2022-08-19T01:52:00;20.50;99.90
9965;DHT22;5023;53.554;9.964;2022-08-19T01:57:07;20.60;99.90
9965;DHT22;5023;53.554;9.964;2022-08-19T02:02:10;20.50;99.90
9965;DHT22;5023;53.554;9.964;2022-08-19T02:07:12;20.40;99.90
9965;DHT22;5023;53.554;9.964;2022-08-19T02:12:16;20.30;99.90
9965;DHT22;5023;53.554;9.964;2022-08-19T02:17:18;20.20;99.90
9965;DHT22;5023;53.554;9.964;2022-08-19T02:22:21;20.20;99.90
9965;DHT22;5023;53.554;9.964;2022-08-19T02:27:24;20.20;99.90
9965;DHT22;5023;53.554;9.964;2022-08-19T02:32:27;20.20;99.90
9965;DHT22;5023;53.554;9.964;2022-08-19T02:37:31;20.20;99.90
9965;DHT22;5023;53.554;9.964;2022-08-19T02:42:48;20.30;99.90
9965;DHT22;5023;53.554;9.964;2022-08-19T02:47:50;20.30;99.90
9965;DHT22;5023;53.554;9.964;2022-08-19T02:52:52;20.10;99.90
9965;DHT22;5023;53.554;9.964;2022-08-19T02:57:56;20.00;99.90
9965;DHT22;5023;53.554;9.964;2022-08-19T03:03:02;20.00;99.90
9965;DHT22;5023;53.554;9.964;2022-08-19T03:08:07;20.00;99.90
9965;DHT22;5023;53.554;9.964;2022-08-19T03:13:16;20.10;99.90
9965;DHT22;5023;53.554;9.964;2022-08-19T03:18:19;20.10;99.90
9965;DHT22;5023;53.554;9.964;2022-08-19T03:23:23;19.90;99.90
9965;DHT22;5023;53.554;9.964;2022-08-19T03:28:29;19.90;99.90
9965;DHT22;5023;53.554;9.964;2022-08-19T03:33:33;19.90;99.90
9965;DHT22;5023;53.554;9.964;2022-08-19T03:38:37;20.00;99.90
9965;DHT22;5023;53.554;9.964;2022-08-19T03:43:41;20.00;99.90
9965;DHT22;5023;53.554;9.964;2022-08-19T03:48:44;20.00;99.90
9965;DHT22;5023;53.554;9.964;2022-08-19T03:53:47;19.80;99.90
9965;DHT22;5023;53.554;9.964;2022-08-19T03:58:51;19.80;99.90
9965;DHT22;5023;53.554;9.964;2022-08-19T04:03:54;19.90;99.90
9965;DHT22;5023;53.554;9.964;2022-08-19T04:08:58;19.80;99.90
9965;DHT22;5023;53.554;9.964;2022-08-19T04:14:02;19.70;99.90
9965;DHT22;5023;53.554;9.964;2022-08-19T04:19:06;19.70;99.90
9965;DHT22;5023;53.554;9.964;2022-08-19T04:24:09;19.70;99.90
9965;DHT22;5023;53.554;9.964;2022-08-19T04:29:15;19.80;99.90
9965;DHT22;5023;53.554;9.964;2022-08-19T04:34:20;19.80;99.90
9965;DHT22;5023;53.554;9.964;2022-08-19T04:39:26;19.80;99.90
9965;DHT22;5023;53.554;9.964;2022-08-19T04:44:50;19.80;99.90
9965;DHT22;5023;53.554;9.964;2022-08-19T04:49:52;19.80;99.90
9965;DHT22;5023;53.554;9.964;2022-08-19T04:54:54;19.80;99.90
9965;DHT22;5023;53.554;9.964;2022-08-19T04:59:58;19.80;99.90
9965;DHT22;5023;53.554;9.964;2022-08-19T05:05:00;19.70;99.90
9965;DHT22;5023;53.554;9.964;2022-08-19T05:10:03;19.70;99.90
9965;DHT22;5023;53.554;9.964;2022-08-19T05:15:08;19.60;99.90
9965;DHT22;5023;53.554;9.964;2022-08-19T05:20:11;19.50;99.90
9965;DHT22;5023;53.554;9.964;2022-08-19T05:25:31;19.60;99.90
9965;DHT22;5023;53.554;9.964;2022-08-19T05:30:43;19.60;99.90
9965;DHT22;5023;53.554;9.964;2022-08-19T05:35:49;19.50;99.90
9965;DHT22;5023;53.554;9.964;2022-08-19T05:40:51;19.50;99.90
9965;DHT22;5023;53.554;9.964;2022-08-19T05:45:58;19.40;99.90
9965;DHT22;5023;53.554;9.964;2022-08-19T05:51:04;19.30;99.90
9965;DHT22;5023;53.554;9.964;2022-08-19T05:56:11;19.30;99.90
9965;DHT22;5023;53.554;9.964;2022-08-19T06:01:16;19.50;99.90
9965;DHT22;5023;53.554;9.964;2022-08-19T06:06:25;19.40;99.90
9965;DHT22;5023;53.554;9.964;2022-08-19T06:11:33;19.50;99.90
9965;DHT22;5023;53.554;9.964;2022-08-19T06:16:39;19.30;99.90
9965;DHT22;5023;53.554;9.964;2022-08-19T06:21:44;19.40;99.90
9965;DHT22;5023;53.554;9.964;2022-08-19T06:26:53;19.40;99.90
9965;DHT22;5023;53.554;9.964;2022-08-19T06:32:02;19.50;99.90
9965;DHT22;5023;53.554;9.964;2022-08-19T06:37:04;19.50;99.90
9965;DHT22;5023;53.554;9.964;2022-08-19T06:42:07;19.60;99.90
9965;DHT22;5023;53.554;9.964;2022-08-19T06:47:18;19.60;99.90
9965;DHT22;5023;53.554;9.964;2022-08-19T06:52:21;19.60;99.90
9965;DHT22;5023;53.554;9.964;2022-08-19T06:57:25;19.50;99.90
9965;DHT22;5023;53.554;9.964;2022-08-19T07:02:30;19.50;99.90
9965;DHT22;5023;53.554;9.964;2022-08-19T07:07:32;19.50;99.90
9965;DHT22;5023;53.554;9.964;2022-08-19T07:12:35;19.50;99.90
9965;DHT22;5023;53.554;9.964;2022-08-19T07:17:39;19.60;99.90
9965;DHT22;5023;53.554;9.964;2022-08-19T07:22:43;19.60;99.90
9965;DHT22;5023;53.554;9.964;2022-08-19T07:27:49;19.70;99.90
9965;DHT22;5023;53.554;9.964;2022-08-19T07:32:58;19.80;99.90
9965;DHT22;5023;53.554;9.964;2022-08-19T07:38:02;19.90;99.90
9965;DHT22;5023;53.554;9.964;2022-08-19T07:43:05;19.90;99.90
9965;DHT22;5023;53.554;9.964;2022-08-19T07:48:08;20.00;99.90
9965;DHT22;5023;53.554;9.964;2022-08-19T07:53:14;20.10;99.90
9965;DHT22;5023;53.554;9.964;2022-08-19T07:58:19;20.20;99.90
9965;DHT22;5023;53.554;9.964;2022-08-19T08:03:23;20.30;99.90
9965;DHT22;5023;53.554;9.964;2022-08-19T08:08:40;20.40;99.90
9965;DHT22;5023;53.554;9.964;2022-08-19T08:14:00;20.40;99.90
9965;DHT22;5023;53.554;9.964;2022-08-19T08:19:07;20.20;99.90
9965;DHT22;5023;53.554;9.964;2022-08-19T08:24:32;20.20;99.90
9965;DHT22;5023;53.554;9.964;2022-08-19T08:29:39;20.30;99.90
9965;DHT22;5023;53.554;9.964;2022-08-19T08:34:55;20.30;99.90
9965;DHT22;5023;53.554;9.964;2022-08-19T08:40:20;20.50;99.90
9965;DHT22;5023;53.554;9.964;2022-08-19T08:45:23;20.40;99.90
9965;DHT22;5023;53.554;9.964;2022-08-19T08:50:32;20.50;99.90
9965;DHT22;5023;53.554;9.964;2022-08-19T08:55:40;20.60;99.90
9965;DHT22;5023;53.554;9.964;2022-08-19T09:00:45;20.70;99.90
9965;DHT22;5023;53.554;9.964;2022-08-19T09:05:55;20.60;99.90
9965;DHT22;5023;53.554;9.964;2022-08-19T09:11:00;20.70;99.90
9965;DHT22;5023;53.554;9.964;2022-08-19T09:16:12;20.70;99.90
9965;DHT22;5023;53.554;9.964;2022-08-19T09:21:21;20.80;99.90
9965;DHT22;5023;53.554;9.964;2022-08-19T09:26:26;20.90;99.90
9965;DHT22;5023;53.554;9.964;2022-08-19T09:31:29;20.90;99.90
9965;DHT22;5023;53.554;9.964;2022-08-19T09:36:34;21.10;99.90
9965;DHT22;5023;53.554;9.964;2022-08-19T09:41:39;21.10;99.90
9965;DHT22;5023;53.554;9.964;2022-08-19T09:46:42;21.10;99.90
9965;DHT22;5023;53.554;9.964;2022-08-19T09:51:46;21.20;99.90
9965;DHT22;5023;53.554;9.964;2022-08-19T09:56:52;21.30;99.90
9965;DHT22;5023;53.554;9.964;2022-08-19T10:01:56;21.20;99.90
9965;DHT22;5023;53.554;9.964;2022-08-19T10:06:59;21.20;99.90
9965;DHT22;5023;53.554;9.964;2022-08-19T10:12:03;21.10;99.90
9965;DHT22;5023;53.554;9.964;2022-08-19T10:17:06;21.10;99.90
9965;DHT22;5023;53.554;9.964;2022-08-19T10:22:13;21.20;99.90
9965;DHT22;5023;53.554;9.964;2022-08-19T10:27:16;21.10;99.90
9965;DHT22;5023;53.554;9.964;2022-08-19T10:32:19;21.00;99.90
9965;DHT22;5023;53.554;9.964;2022-08-19T10:43:21;21.00;99.90
9965;DHT22;5023;53.554;9.964;2022-08-19T10:48:23;21.10;99.90
9965;DHT22;5023;53.554;9.964;2022-08-19T10:54:04;21.20;99.90
9965;DHT22;5023;53.554;9.964;2022-08-19T10:59:06;21.20;99.90
9965;DHT22;5023;53.554;9.964;2022-08-19T11:04:13;21.20;99.90
9965;DHT22;5023;53.554;9.964;2022-08-19T11:09:24;21.10;99.90
9965;DHT22;5023;53.554;9.964;2022-08-19T11:14:28;21.30;99.90
9965;DHT22;5023;53.554;9.964;2022-08-19T11:19:34;21.30;99.90
9965;DHT22;5023;53.554;9.964;2022-08-19T11:24:41;21.30;99.90
9965;DHT22;5023;53.554;9.964;2022-08-19T11:29:43;21.30;99.90
9965;DHT22;5023;53.554;9.964;2022-08-19T11:34:48;21.50;99.90
9965;DHT22;5023;53.554;9.964;2022-08-19T11:39:52;21.70;99.90
9965;DHT22;5023;53.554;9.964;2022-08-19T11:44:55;21.80;99.90
9965;DHT22;5023;53.554;9.964;2022-08-19T11:50:02;22.00;99.90
9965;DHT22;5023;53.554;9.964;2022-08-19T11:55:13;22.10;99.90
9965;DHT22;5023;53.554;9.964;2022-08-19T12:00:22;22.10;99.90
9965;DHT22;5023;53.554;9.964;2022-08-19T12:05:25;22.20;99.90
9965;DHT22;5023;53.554;9.964;2022-08-19T12:10:28;22.20;99.90
9965;DHT22;5023;53.554;9.964;2022-08-19T12:15:35;22.20;99.90
9965;DHT22;5023;53.554;9.964;2022-08-19T12:20:51;22.20;99.90
9965;DHT22;5023;53.554;9.964;2022-08-19T12:25:56;22.30;99.90
9965;DHT22;5023;53.554;9.964;2022-08-19T12:31:01;22.50;99.90
9965;DHT22;5023;53.554;9.964;2022-08-19T12:36:06;22.80;99.90
9965;DHT22;5023;53.554;9.964;2022-08-19T12:41:12;23.00;99.90
9965;DHT22;5023;53.554;9.964;2022-08-19T12:46:15;23.00;99.90
9965;DHT22;5023;53.554;9.964;2022-08-19T12:51:20;23.20;99.90
9965;DHT22;5023;53.554;9.964;2022-08-19T12:56:24;23.30;99.90
9965;DHT22;5023;53.554;9.964;2022-08-19T13:01:26;23.40;99.90
9965;DHT22;5023;53.554;9.964;2022-08-19T13:06:33;23.60;99.90
9965;DHT22;5023;53.554;9.964;2022-08-19T13:11:37;23.70;99.90
9965;DHT22;5023;53.554;9.964;2022-08-19T13:16:42;23.60;99.90
9965;DHT22;5023;53.554;9.964;2022-08-19T13:21:49;23.60;99.90
9965;DHT22;5023;53.554;9.964;2022-08-19T13:26:53;23.70;99.90
9965;DHT22;5023;53.554;9.964;2022-08-19T13:31:55;23.60;99.90
9965;DHT22;5023;53.554;9.964;2022-08-19T13:37:15;23.50;99.90
9965;DHT22;5023;53.554;9.964;2022-08-19T13:42:38;23.50;99.90
9965;DHT22;5023;53.554;9.964;2022-08-19T13:47:41;23.30;99.90
9965;DHT22;5023;53.554;9.964;2022-08-19T13:52:45;23.30;99.90
9965;DHT22;5023;53.554;9.964;2022-08-19T13:57:51;23.40;99.90
9965;DHT22;5023;53.554;9.964;2022-08-19T14:02:56;23.50;99.90
9965;DHT22;5023;53.554;9.964;2022-08-19T14:08:00;23.50;99.90
9965;DHT22;5023;53.554;9.964;2022-08-19T14:13:08;23.50;99.90
9965;DHT22;5023;53.554;9.964;2022-08-19T14:18:14;23.30;99.90
9965;DHT22;5023;53.554;9.964;2022-08-19T14:23:16;23.30;99.90
9965;DHT22;5023;53.554;9.964;2022-08-19T14:28:20;23.50;99.90
9965;DHT22;5023;53.554;9.964;2022-08-19T14:33:22;23.50;99.90
9965;DHT22;5023;53.554;9.964;2022-08-19T14:38:25;23.50;99.90
9965;DHT22;5023;53.554;9.964;2022-08-19T14:43:29;23.60;99.90
9965;DHT22;5023;53.554;9.964;2022-08-19T14:48:31;23.60;99.90
9965;DHT22;5023;53.554;9.964;2022-08-19T14:53:34;23.90;99.90
9965;DHT22;5023;53.554;9.964;2022-08-19T14:58:58;24.00;99.90
9965;DHT22;5023;53.554;9.964;2022-08-19T15:04:01;23.90;99.90
9965;DHT22;5023;53.554;9.964;2022-08-19T15:09:04;23.90;99.90
9965;DHT22;5023;53.554;9.964;2022-08-19T15:20:46;23.90;99.90
9965;DHT22;5023;53.554;9.964;2022-08-19T15:26:22;23.90;99.90
9965;DHT22;5023;53.554;9.964;2022-08-19T15:38:23;24.00;99.90
9965;DHT22;5023;53.554;9.964;2022-08-19T15:43:53;24.00;99.90
9965;DHT22;5023;53.554;9.964;2022-08-19T15:49:47;24.10;99.90
9965;DHT22;5023;53.554;9.964;2022-08-19T15:54:49;24.20;99.90
9965;DHT22;5023;53.554;9.964;2022-08-19T16:00:12;24.30;99.90
9965;DHT22;5023;53.554;9.964;2022-08-19T16:05:39;24.30;99.90
9965;DHT22;5023;53.554;9.964;2022-08-19T16:10:59;24.40;99.90
9965;DHT22;5023;53.554;9.964;2022-08-19T16:16:37;24.30;99.90
9965;DHT22;5023;53.554;9.964;2022-08-19T16:22:17;24.30;99.90
9965;DHT22;5023;53.554;9.964;2022-08-19T16:27:57;24.30;99.90
9965;DHT22;5023;53.554;9.964;2022-08-19T16:33:36;24.20;99.90
9965;DHT22;5023;53.554;9.964;2022-08-19T16:45:21;24.20;99.90
9965;DHT22;5023;53.554;9.964;2022-08-19T16:51:02;24.10;99.90
9965;DHT22;5023;53.554;9.964;2022-08-19T17:02:35;24.00;99.90
9965;DHT22;5023;53.554;9.964;2022-08-19T17:20:16;23.70;99.90
9965;DHT22;5023;53.554;9.964;2022-08-19T17:25:51;23.70;99.90
9965;DHT22;5023;53.554;9.964;2022-08-19T17:37:46;23.70;99.90
9965;DHT22;5023;53.554;9.964;2022-08-19T17:42:50;23.50;99.90
9965;DHT22;5023;53.554;9.964;2022-08-19T17:54:39;23.30;99.90
9965;DHT22;5023;53.554;9.964;2022-08-19T17:59:42;23.10;99.90
9965;DHT22;5023;53.554;9.964;2022-08-19T18:05:23;23.10;99.90
9965;DHT22;5023;53.554;9.964;2022-08-19T18:17:34;22.80;99.90
9965;DHT22;5023;53.554;9.964;2022-08-19T18:23:09;22.70;99.90
9965;DHT22;5023;53.554;9.964;2022-08-19T18:28:30;22.60;99.90
9965;DHT22;5023;53.554;9.964;2022-08-19T18:34:07;22.50;99.90
9965;DHT22;5023;53.554;9.964;2022-08-19T18:39:59;22.50;99.90
9965;DHT22;5023;53.554;9.964;2022-08-19T18:45:19;22.40;99.90
9965;DHT22;5023;53.554;9.964;2022-08-19T18:56:42;22.20;99.90
9965;DHT22;5023;53.554;9.964;2022-08-19T19:26:39;22.20;99.90
9965;DHT22;5023;53.554;9.964;2022-08-19T19:38:37;22.10;99.90
9965;DHT22;5023;53.554;9.964;2022-08-19T19:44:38;22.10;99.90
9965;DHT22;5023;53.554;9.964;2022-08-19T19:56:09;22.10;99.90
9965;DHT22;5023;53.554;9.964;2022-08-19T20:20:29;21.90;99.90
9965;DHT22;5023;53.554;9.964;2022-08-19T20:26:24;21.90;99.90
9965;DHT22;5023;53.554;9.964;2022-08-19T20:32:03;21.80;99.90
9965;DHT22;5023;53.554;9.964;2022-08-19T20:38:03;21.70;99.90
9965;DHT22;5023;53.554;9.964;2022-08-19T20:49:39;21.50;99.90
9965;DHT22;5023;53.554;9.964;2022-08-19T20:55:14;21.40;99.90
9965;DHT22;5023;53.554;9.964;2022-08-19T21:07:10;21.30;99.90
9965;DHT22;5023;53.554;9.964;2022-08-19T21:12:51;21.30;99.90
9965;DHT22;5023;53.554;9.964;2022-08-19T21:41:09;21.10;99.90
9965;DHT22;5023;53.554;9.964;2022-08-19T21:46:44;21.10;99.90
9965;DHT22;5023;53.554;9.964;2022-08-19T21:52:25;21.00;99.90
9965;DHT22;5023;53.554;9.964;2022-08-19T21:57:59;21.00;99.90
9965;DHT22;5023;53.554;9.964;2022-08-19T22:03:02;21.00;99.90
9965;DHT22;5023;53.554;9.964;2022-08-19T22:08:41;21.00;99.90
9965;DHT22;5023;53.554;9.964;2022-08-19T22:14:16;21.10;99.90
9965;DHT22;5023;53.554;9.964;2022-08-19T22:19:53;21.00;99.90
9965;DHT22;5023;53.554;9.964;2022-08-19T22:25:31;20.90;99.90
9965;DHT22;5023;53.554;9.964;2022-08-19T22:31:07;20.90;99.90
9965;DHT22;5023;53.554;9.964;2022-08-19T22:36:50;20.90;99.90
9965;DHT22;5023;53.554;9.964;2022-08-19T22:42:34;20.90;99.90
9965;DHT22;5023;53.554;9.964;2022-08-19T22:48:14;20.90;99.90
9965;DHT22;5023;53.554;9.964;2022-08-19T22:53:41;20.90;99.90
9965;DHT22;5023;53.554;9.964;2022-08-19T23:05:12;20.90;99.90
9965;DHT22;5023;53.554;9.964;2022-08-19T23:10:33;20.80;99.90
9965;DHT22;5023;53.554;9.964;2022-08-19T23:16:10;20.90;99.90
9965;DHT22;5023;53.554;9.964;2022-08-19T23:22:12;20.90;99.90
9965;DHT22;5023;53.554;9.964;2022-08-19T23:27:50;21.00;99.90
9965;DHT22;5023;53.554;9.964;2022-08-19T23:39:35;21.00;99.90
9965;DHT22;5023;53.554;9.964;2022-08-19T23:45:15;21.00;99.90
9965;DHT22;5023;53.554;9.964;2022-08-19T23:56:50;20.90;99.90
